Time;durP1;ratioP1;P1;durP2;ratioP2;P2;SDS_P1;SDS_P2;PMS_P1;PMS_P2;Temp;Humidity;BMP_temperature;BMP_pressure;BME280_temperature;BME280_humidity;BME280_pressure;Samples;Min_cycle;Max_cycle;Signal;HPM_P1;HPM_P2
2021/04/04 00:01:08;;;;;;;8.07;1.70;;;10.60;66.50;;;;;;5052719;28;20040;-67
2021/04/04 00:03:34;;;;;;;8.68;1.77;;;10.60;66.60;;;;;;5051643;28;20024;-67
2021/04/04 00:06:00;;;;;;;12.25;1.98;;;10.60;66.90;;;;;;5052439;28;20480;-67
2021/04/04 00:08:26;;;;;;;10.98;1.60;;;10.60;67.00;;;;;;5051526;28;20468;-67
2021/04/04 00:10:52;;;;;;;11.20;2.20;;;10.50;67.30;;;;;;5052616;28;20083;-67
2021/04/04 00:13:17;;;;;;;13.77;2.05;;;10.60;67.50;;;;;;5052991;28;20036;-67
2021/04/04 00:15:43;;;;;;;11.45;2.17;;;10.50;68.00;;;;;;5055858;28;20795;-67
2021/04/04 00:18:09;;;;;;;9.40;1.58;;;10.50;68.10;;;;;;5038570;28;20385;-67
2021/04/04 00:20:35;;;;;;;9.00;1.90;;;10.50;68.00;;;;;;5056501;28;20032;-67
2021/04/04 00:23:01;;;;;;;4.97;1.52;;;10.60;68.20;;;;;;5055713;28;20037;-67
2021/04/04 00:25:27;;;;;;;13.63;1.90;;;10.50;68.30;;;;;;5056349;28;20025;-67
2021/04/04 00:27:52;;;;;;;9.55;1.90;;;10.50;68.30;;;;;;5056542;28;20476;-67
2021/04/04 00:30:20;;;;;;;4.65;1.58;;;10.50;68.10;;;;;;5055628;28;20070;-67
2021/04/04 00:32:46;;;;;;;8.13;1.80;;;10.50;68.10;;;;;;5056423;28;20029;-67
2021/04/04 00:35:14;;;;;;;7.70;1.85;;;10.50;67.90;;;;;;5056106;28;20025;-67
2021/04/04 00:37:40;;;;;;;9.82;1.30;;;10.50;67.90;;;;;;5055209;28;20084;-67
2021/04/04 00:40:11;;;;;;;9.13;1.95;;;10.50;67.70;;;;;;5056399;28;20048;-67
2021/04/04 00:42:37;;;;;;;13.48;2.20;;;10.50;67.40;;;;;;5056117;28;20028;-67
2021/04/04 00:45:18;;;;;;;10.98;2.28;;;10.50;67.40;;;;;;5055412;28;20028;-67
2021/04/04 00:47:47;;;;;;;6.80;1.38;;;10.50;67.40;;;;;;5069191;28;20049;-67
2021/04/04 00:50:14;;;;;;;6.78;1.40;;;10.50;67.40;;;;;;5055931;28;20044;-67
2021/04/04 00:52:41;;;;;;;8.05;1.95;;;10.50;67.40;;;;;;5037401;28;20025;-67
2021/04/04 00:55:08;;;;;;;13.20;1.80;;;10.50;67.50;;;;;;5055885;28;20029;-67
2021/04/04 00:57:34;;;;;;;9.98;1.60;;;10.50;68.00;;;;;;5055866;28;20029;-67
2021/04/04 01:00:03;;;;;;;11.32;1.50;;;10.40;67.50;;;;;;5055260;28;20055;-67
2021/04/04 01:02:28;;;;;;;8.80;1.95;;;10.40;67.70;;;;;;5055780;28;20031;-67
2021/04/04 01:04:56;;;;;;;6.15;1.60;;;10.50;67.90;;;;;;5055167;28;20447;-67
2021/04/04 01:07:22;;;;;;;7.22;1.40;;;10.40;67.80;;;;;;5055764;28;20037;-67
2021/04/04 01:09:48;;;;;;;6.45;1.77;;;10.50;67.60;;;;;;5055726;28;20036;-67
2021/04/04 01:12:41;;;;;;;17.27;2.03;;;10.40;67.50;;;;;;5054807;28;20028;-67
2021/04/04 01:15:16;;;;;;;8.38;1.80;;;10.50;67.70;;;;;;5055234;28;20037;-67
2021/04/04 01:17:46;;;;;;;12.23;2.10;;;10.40;67.60;;;;;;5055553;28;20083;-67
2021/04/04 01:20:38;;;;;;;7.75;1.73;;;10.40;67.80;;;;;;5054684;28;20479;-67
2021/04/04 01:23:27;;;;;;;6.75;1.35;;;10.40;68.00;;;;;;5055349;28;20112;-67
2021/04/04 01:26:03;;;;;;;13.57;2.03;;;10.40;67.80;;;;;;5053444;28;20124;-67
2021/04/04 01:28:32;;;;;;;8.18;1.95;;;10.40;67.90;;;;;;5055417;28;20095;-67
2021/04/04 01:30:59;;;;;;;7.15;1.95;;;10.50;68.20;;;;;;5055206;28;20024;-67
2021/04/04 01:33:28;;;;;;;6.25;1.60;;;10.40;68.00;;;;;;5054566;28;20036;-67
2021/04/04 01:35:56;;;;;;;6.03;1.42;;;10.40;68.10;;;;;;5054956;28;20503;-67
2021/04/04 01:38:27;;;;;;;9.68;1.65;;;10.40;68.30;;;;;;5055458;28;20063;-67
2021/04/04 01:40:58;;;;;;;16.65;1.95;;;10.40;68.50;;;;;;5054243;28;20033;-67
2021/04/04 01:43:26;;;;;;;8.27;1.83;;;10.40;68.70;;;;;;5055153;28;20029;-67
2021/04/04 01:45:53;;;;;;;11.63;1.67;;;10.40;68.70;;;;;;5054637;28;20523;-66
2021/04/04 01:48:19;;;;;;;8.35;2.08;;;10.40;68.50;;;;;;5073559;28;20115;-67
2021/04/04 01:50:46;;;;;;;8.65;1.98;;;10.40;68.80;;;;;;5064557;28;20479;-67
2021/04/04 01:53:16;;;;;;;7.63;1.83;;;10.40;68.00;;;;;;5054879;28;20021;-67
2021/04/04 01:55:43;;;;;;;10.18;1.85;;;10.40;67.70;;;;;;5054071;28;20473;-66
2021/04/04 01:58:10;;;;;;;7.75;1.80;;;10.40;67.70;;;;;;5054605;28;20052;-67
2021/04/04 02:00:38;;;;;;;4.68;1.70;;;10.40;67.80;;;;;;5054759;28;20044;-67
2021/04/04 02:03:05;;;;;;;7.65;1.65;;;10.40;67.90;;;;;;5053950;28;20033;-67
2021/04/04 02:05:32;;;;;;;11.77;1.95;;;10.40;68.00;;;;;;5054526;28;20033;-67
2021/04/04 02:08:00;;;;;;;9.70;1.75;;;10.40;68.30;;;;;;5053885;28;20040;-67
2021/04/04 02:10:29;;;;;;;6.57;2.33;;;10.40;68.10;;;;;;5054459;28;20025;-67
2021/04/04 02:12:58;;;;;;;10.32;1.95;;;10.40;67.80;;;;;;5054471;28;20040;-66
2021/04/04 02:15:27;;;;;;;9.57;2.10;;;10.40;68.10;;;;;;5053490;28;20044;-66
2021/04/04 02:17:54;;;;;;;11.65;2.50;;;10.40;68.70;;;;;;5054226;28;20029;-66
2021/04/04 02:20:22;;;;;;;16.65;2.10;;;10.30;68.50;;;;;;5054010;28;20515;-66
2021/04/04 02:22:49;;;;;;;6.93;2.30;;;10.40;68.50;;;;;;5053658;28;20029;-66
2021/04/04 02:25:16;;;;;;;11.05;2.40;;;10.30;68.80;;;;;;5054028;28;20068;-67
2021/04/04 02:27:43;;;;;;;11.45;3.13;;;10.40;69.10;;;;;;5054173;28;20095;-67
2021/04/04 02:30:11;;;;;;;12.63;2.67;;;10.30;69.20;;;;;;5053341;28;20031;-67
2021/04/04 02:32:45;;;;;;;11.77;2.90;;;10.40;69.40;;;;;;5054188;28;20029;-67
2021/04/04 02:35:12;;;;;;;;;;;10.30;69.10;;;;;;5054466;28;20033;-66
2021/04/04 02:37:38;;;;;;;8.88;3.25;;;10.30;70.00;;;;;;5053053;28;19909;-67
2021/04/04 02:40:07;;;;;;;14.73;3.65;;;10.30;69.70;;;;;;5053990;28;20095;-67
2021/04/04 02:42:33;;;;;;;8.00;2.83;;;10.30;69.40;;;;;;5053683;28;20095;-66
2021/04/04 02:45:00;;;;;;;7.85;3.30;;;10.30;69.50;;;;;;5053388;28;20075;-66
2021/04/04 02:47:56;;;;;;;16.30;4.15;;;10.20;69.20;;;;;;5061209;28;20053;-67
2021/04/04 02:50:24;;;;;;;11.82;3.95;;;10.30;69.00;;;;;;5056040;28;20460;-67
2021/04/04 02:52:53;;;;;;;9.55;3.53;;;10.30;68.80;;;;;;5061659;28;20445;-67
2021/04/04 02:55:19;;;;;;;8.30;2.90;;;10.30;68.50;;;;;;5066068;28;21304;-67
2021/04/04 02:57:46;;;;;;;12.07;3.40;;;10.40;68.70;;;;;;5066471;28;20055;-66
2021/04/04 03:00:16;;;;;;;14.15;3.58;;;10.40;68.30;;;;;;5035760;28;20028;-67
2021/04/04 03:02:42;;;;;;;13.45;3.05;;;10.40;68.60;;;;;;5053475;28;20045;-67
2021/04/04 03:05:09;;;;;;;7.97;2.90;;;10.30;69.00;;;;;;5070430;28;20021;-67
2021/04/04 03:07:41;;;;;;;11.93;3.45;;;10.30;69.20;;;;;;5073220;28;20557;-67
2021/04/04 03:10:08;;;;;;;12.65;3.90;;;10.30;69.10;;;;;;5056081;28;20468;-67
2021/04/04 03:12:37;;;;;;;14.38;3.78;;;10.30;69.50;;;;;;5052756;28;20035;-67
2021/04/04 03:15:07;;;;;;;12.57;3.88;;;10.30;69.60;;;;;;5052936;28;20036;-67
2021/04/04 03:17:37;;;;;;;13.93;3.10;;;10.20;69.40;;;;;;5053294;28;20427;-67
2021/04/04 03:20:06;;;;;;;10.73;3.83;;;10.30;69.80;;;;;;5052291;28;20150;-67
2021/04/04 03:22:33;;;;;;;11.52;2.75;;;10.30;69.80;;;;;;5073099;28;20036;-67
2021/04/04 03:24:59;;;;;;;8.65;2.92;;;10.20;69.80;;;;;;5060157;28;20527;-67
2021/04/04 03:27:26;;;;;;;14.48;3.92;;;10.20;69.50;;;;;;5051978;28;20036;-67
2021/04/04 03:29:52;;;;;;;12.57;4.10;;;10.20;69.50;;;;;;5053115;28;20116;-67
2021/04/04 03:32:18;;;;;;;15.05;4.22;;;10.20;69.40;;;;;;5052800;28;20048;-67
2021/04/04 03:34:44;;;;;;;10.57;4.05;;;10.20;69.20;;;;;;5052393;28;20029;-67
2021/04/04 03:37:11;;;;;;;14.68;6.03;;;10.20;69.20;;;;;;5052946;28;20029;-67
2021/04/04 03:39:37;;;;;;;17.92;4.35;;;10.20;69.00;;;;;;5034178;28;20036;-67
2021/04/04 03:42:03;;;;;;;14.45;4.07;;;10.20;68.80;;;;;;5053022;28;20063;-67
2021/04/04 03:44:32;;;;;;;16.42;5.07;;;10.20;68.90;;;;;;5034915;28;20480;-67
2021/04/04 03:46:59;;;;;;;17.80;3.58;;;10.20;68.30;;;;;;5051803;28;20068;-67
2021/04/04 03:49:25;;;;;;;6.82;2.95;;;10.20;68.70;;;;;;5052217;28;20028;-67
2021/04/04 03:51:59;;;;;;;13.60;4.30;;;10.20;69.10;;;;;;5069815;28;20033;-67
2021/04/04 03:54:27;;;;;;;11.93;3.97;;;10.20;68.80;;;;;;5071249;28;20120;-67
2021/04/04 03:56:54;;;;;;;14.68;4.45;;;10.20;68.80;;;;;;5064275;28;20087;-66
2021/04/04 03:59:22;;;;;;;13.52;4.22;;;10.20;68.30;;;;;;5071910;28;20376;-66
2021/04/04 04:01:49;;;;;;;16.58;5.30;;;10.20;68.10;;;;;;5071297;28;20532;-66
2021/04/04 04:04:18;;;;;;;13.65;4.88;;;10.20;67.90;;;;;;5072059;28;20480;-66
2021/04/04 04:06:45;;;;;;;15.10;4.10;;;10.20;67.70;;;;;;5069149;28;20385;-67
2021/04/04 04:09:18;;;;;;;14.88;4.30;;;10.20;67.80;;;;;;5071540;28;20016;-66
2021/04/04 04:11:46;;;;;;;14.00;4.87;;;10.20;67.80;;;;;;5072495;28;20025;-66
2021/04/04 04:14:16;;;;;;;15.80;5.43;;;10.20;67.90;;;;;;5072192;28;20533;-66
2021/04/04 04:16:42;;;;;;;14.00;4.75;;;10.20;67.40;;;;;;5068339;28;20057;-66
2021/04/04 04:19:10;;;;;;;16.08;4.63;;;10.10;67.10;;;;;;5068193;28;20028;-67
2021/04/04 04:21:41;;;;;;;18.85;5.50;;;10.10;66.90;;;;;;5071519;28;20040;-67
2021/04/04 04:24:13;;;;;;;14.23;4.13;;;10.10;66.60;;;;;;5072353;28;20024;-66
2021/04/04 04:26:42;;;;;;;10.63;4.25;;;10.10;66.70;;;;;;5071903;28;20568;-66
2021/04/04 04:29:11;;;;;;;15.45;3.97;;;10.10;66.90;;;;;;5071702;28;20356;-67
2021/04/04 04:31:38;;;;;;;18.75;4.75;;;10.10;67.00;;;;;;5072220;28;20047;-66
2021/04/04 04:34:07;;;;;;;12.38;3.92;;;10.10;67.20;;;;;;5072361;28;20098;-67
2021/04/04 04:36:35;;;;;;;15.88;4.43;;;10.10;67.20;;;;;;5071557;28;20024;-66
2021/04/04 04:39:03;;;;;;;15.45;5.43;;;10.20;67.30;;;;;;5072099;28;20027;-67
2021/04/04 04:41:32;;;;;;;9.73;4.18;;;10.20;67.80;;;;;;5072333;28;20170;-66
2021/04/04 04:44:00;;;;;;;13.60;5.47;;;10.10;67.80;;;;;;5071476;28;20013;-66
2021/04/04 04:46:27;;;;;;;14.50;4.70;;;10.00;67.20;;;;;;5071833;28;20044;-66
2021/04/04 04:48:53;;;;;;;12.63;3.75;;;10.00;67.60;;;;;;5072005;28;20477;-66
2021/04/04 04:51:20;;;;;;;15.35;4.82;;;10.00;67.30;;;;;;5071204;28;20580;-66
2021/04/04 04:53:47;;;;;;;16.55;5.20;;;10.00;66.70;;;;;;5071904;28;20586;-66
2021/04/04 04:56:14;;;;;;;14.93;4.93;;;9.90;66.30;;;;;;5072045;28;20052;-66
2021/04/04 04:58:42;;;;;;;13.00;4.40;;;9.90;66.10;;;;;;5061865;28;20083;-66
2021/04/04 05:01:11;;;;;;;6.90;3.47;;;9.90;66.70;;;;;;5054960;28;20043;-66
2021/04/04 05:03:37;;;;;;;14.02;4.85;;;9.90;66.90;;;;;;5055778;28;20037;-67
2021/04/04 05:06:11;;;;;;;7.97;4.72;;;9.80;67.60;;;;;;5054899;28;20136;-66
2021/04/04 05:08:45;;;;;;;5.18;2.55;;;9.90;67.00;;;;;;5055696;28;20485;-66
2021/04/04 05:11:17;;;;;;;13.48;3.92;;;9.80;68.40;;;;;;5054901;28;20036;-66
2021/04/04 05:13:43;;;;;;;11.05;4.40;;;9.80;67.50;;;;;;5055574;28;20086;-66
2021/04/04 05:16:16;;;;;;;18.58;5.75;;;9.80;67.30;;;;;;5055441;28;20477;-66
2021/04/04 05:18:46;;;;;;;14.88;4.53;;;9.80;66.90;;;;;;5054809;28;20048;-66
2021/04/04 05:21:17;;;;;;;26.02;5.40;;;9.80;67.30;;;;;;5055608;28;20033;-66
2021/04/04 05:23:43;;;;;;;15.00;4.80;;;9.80;67.70;;;;;;5055454;28;20395;-66
2021/04/04 05:26:09;;;;;;;11.15;4.43;;;9.80;68.10;;;;;;5054380;28;20041;-66
2021/04/04 05:28:35;;;;;;;10.00;4.55;;;9.80;68.40;;;;;;5058505;28;20078;-66
2021/04/04 05:31:04;;;;;;;16.73;5.20;;;9.80;68.50;;;;;;5065743;28;20029;-66
2021/04/04 05:33:30;;;;;;;18.08;6.10;;;9.80;68.30;;;;;;5054273;28;20025;-66
2021/04/04 05:36:01;;;;;;;11.82;4.55;;;9.80;68.00;;;;;;5055107;28;20036;-66
2021/04/04 05:38:27;;;;;;;16.65;4.95;;;9.80;67.80;;;;;;5055144;28;20048;-66
2021/04/04 05:40:56;;;;;;;15.93;5.00;;;9.80;67.70;;;;;;5054398;28;20021;-66
2021/04/04 05:43:26;;;;;;;12.23;4.55;;;9.80;67.30;;;;;;5054822;28;20490;-66
2021/04/04 05:46:15;;;;;;;16.90;4.72;;;9.80;67.40;;;;;;5054509;28;20049;-66
2021/04/04 05:49:02;;;;;;;13.70;4.40;;;9.80;67.10;;;;;;5075732;28;20109;-67
2021/04/04 05:51:51;;;;;;;18.52;4.40;;;9.80;67.90;;;;;;5085317;28;20480;-66
2021/04/04 05:54:37;;;;;;;18.08;4.90;;;9.80;67.30;;;;;;5074822;28;20614;-66
2021/04/04 05:57:17;;;;;;;13.35;5.05;;;9.80;67.00;;;;;;5085299;28;20376;-66
2021/04/04 05:59:56;;;;;;;11.55;5.03;;;9.80;66.70;;;;;;5074741;28;20056;-66
2021/04/04 06:02:40;;;;;;;11.68;4.88;;;9.70;66.90;;;;;;5073994;28;20029;-66
2021/04/04 06:05:50;;;;;;;15.32;5.30;;;9.70;66.90;;;;;;5074841;28;20102;-66
2021/04/04 06:08:47;;;;;;;18.38;4.57;;;9.80;67.30;;;;;;5058026;28;20051;-66
2021/04/04 06:11:40;;;;;;;17.58;5.15;;;9.70;67.70;;;;;;5073683;28;20039;-67
2021/04/04 06:14:28;;;;;;;20.57;4.50;;;9.80;68.20;;;;;;5074257;28;20035;-66
2021/04/04 06:17:02;;;;;;;13.55;4.03;;;9.70;68.30;;;;;;5074327;28;20384;-66
2021/04/04 06:20:05;;;;;;;16.58;4.45;;;9.80;68.30;;;;;;5074621;28;20029;-66
2021/04/04 06:22:49;;;;;;;15.18;4.93;;;9.80;68.20;;;;;;5073648;28;20032;-66
2021/04/04 06:25:50;;;;;;;12.38;4.18;;;9.80;68.50;;;;;;5073998;28;20530;-66
2021/04/04 06:28:50;;;;;;;11.90;3.92;;;9.80;68.90;;;;;;5048665;28;20083;-66
2021/04/04 06:31:33;;;;;;;16.23;4.95;;;9.80;69.70;;;;;;5074154;28;20043;-66
2021/04/04 06:34:12;;;;;;;18.83;4.53;;;9.80;70.10;;;;;;5073952;28;20059;-66
2021/04/04 06:37:00;;;;;;;14.95;4.70;;;9.80;70.40;;;;;;5073559;28;20059;-66
2021/04/04 06:39:26;;;;;;;12.75;3.97;;;9.80;70.80;;;;;;5074019;28;20035;-66
2021/04/04 06:41:52;;;;;;;10.30;3.50;;;9.80;70.90;;;;;;5073805;28;20021;-66
2021/04/04 06:44:58;;;;;;;13.13;4.80;;;9.80;71.20;;;;;;5071767;28;20427;-66
2021/04/04 06:47:59;;;;;;;19.35;6.43;;;9.70;71.20;;;;;;5063471;28;20412;-66
2021/04/04 06:50:27;;;;;;;12.93;5.47;;;9.70;71.70;;;;;;5038447;28;20127;-69
2021/04/04 06:53:02;;;;;;;10.52;3.97;;;9.70;71.10;;;;;;5053856;28;20029;-68
2021/04/04 06:55:50;;;;;;;13.90;4.47;;;9.70;71.20;;;;;;5064435;28;20067;-67
2021/04/04 06:58:15;;;;;;;16.67;4.40;;;9.70;72.00;;;;;;5054535;28;20460;-67
2021/04/04 07:00:42;;;;;;;21.02;4.97;;;9.70;71.40;;;;;;5072717;28;20103;-67
2021/04/04 07:03:09;;;;;;;8.82;3.35;;;9.70;71.30;;;;;;5072868;28;20033;-68
2021/04/04 07:05:42;;;;;;;11.52;3.70;;;9.70;71.50;;;;;;5072250;28;20028;-67
2021/04/04 07:08:26;;;;;;;9.05;3.50;;;9.70;71.70;;;;;;5072868;28;20031;-67
2021/04/04 07:11:01;;;;;;;;;;;9.70;71.70;;;;;;5071923;28;20028;-67
2021/04/04 07:13:43;;;;;;;12.20;3.17;;;9.70;71.80;;;;;;5072574;28;19931;-67
2021/04/04 07:16:34;;;;;;;9.00;2.50;;;9.70;71.60;;;;;;5072917;28;20059;-66
2021/04/04 07:19:20;;;;;;;13.13;3.75;;;9.70;71.90;;;;;;5069835;28;20032;-66
2021/04/04 07:21:57;;;;;;;14.55;4.43;;;9.70;72.00;;;;;;5072435;28;20435;-66
2021/04/04 07:24:44;;;;;;;11.25;2.90;;;9.60;71.80;;;;;;5071893;28;20052;-67
2021/04/04 07:27:17;;;;;;;7.43;2.30;;;9.60;72.10;;;;;;5069751;28;20041;-66
2021/04/04 07:30:01;;;;;;;14.90;2.33;;;9.60;71.90;;;;;;5072569;28;20020;-66
2021/04/04 07:32:40;;;;;;;9.52;2.22;;;9.70;71.40;;;;;;5071700;28;20631;-67
2021/04/04 07:35:14;;;;;;;12.15;2.35;;;9.70;72.20;;;;;;5072214;28;20023;-67
2021/04/04 07:37:44;;;;;;;5.80;1.98;;;9.70;71.70;;;;;;5070178;28;20060;-66
2021/04/04 07:40:18;;;;;;;8.77;2.05;;;9.70;71.90;;;;;;5071300;28;20033;-66
2021/04/04 07:43:05;;;;;;;6.95;1.77;;;9.70;72.00;;;;;;5035518;28;20036;-67
2021/04/04 07:46:02;;;;;;;3.35;0.85;;;9.70;72.10;;;;;;5054507;28;20109;-66
2021/04/04 07:48:35;;;;;;;6.78;1.88;;;9.70;72.30;;;;;;5088447;28;20047;-65
2021/04/04 07:51:07;;;;;;;4.32;1.58;;;9.70;72.10;;;;;;5090798;28;20039;-67
2021/04/04 07:53:49;;;;;;;7.25;2.15;;;9.70;72.30;;;;;;5091569;28;20368;-67
2021/04/04 07:56:23;;;;;;;12.02;2.15;;;9.70;72.20;;;;;;5081351;28;20024;-66
2021/04/04 07:59:22;;;;;;;1.58;1.38;;;9.70;72.40;;;;;;5091151;28;20486;-72
2021/04/04 08:02:03;;;;;;;1.77;1.05;;;9.60;72.60;;;;;;5090193;28;20116;-70
2021/04/04 08:04:51;;;;;;;3.95;1.15;;;9.60;72.70;;;;;;5090706;28;20623;-67
2021/04/04 08:07:41;;;;;;;10.15;2.25;;;9.70;72.90;;;;;;5081565;28;20051;-70
2021/04/04 08:10:30;;;;;;;12.32;2.75;;;9.60;73.10;;;;;;5091821;28;20035;-69
2021/04/04 08:13:29;;;;;;;8.90;1.70;;;9.60;73.20;;;;;;5090493;28;20098;-65
2021/04/04 08:16:05;;;;;;;4.40;1.77;;;9.60;73.30;;;;;;5073717;28;20079;-67
2021/04/04 08:18:31;;;;;;;3.53;1.05;;;9.60;73.40;;;;;;5076396;28;20107;-67
2021/04/04 08:21:01;;;;;;;16.30;2.70;;;9.70;73.40;;;;;;5075810;28;20420;-67
2021/04/04 08:23:49;;;;;;;2.50;1.50;;;9.60;73.50;;;;;;5074665;28;20035;-67
2021/04/04 08:26:24;;;;;;;8.68;1.50;;;9.70;73.70;;;;;;5072257;28;20044;-67
2021/04/04 08:28:53;;;;;;;15.73;2.42;;;9.70;73.50;;;;;;5074770;28;20047;-67
2021/04/04 08:31:30;;;;;;;3.92;1.50;;;9.70;72.70;;;;;;5091803;28;20024;-67
2021/04/04 08:34:05;;;;;;;9.98;2.40;;;9.70;73.60;;;;;;5091880;28;20067;-67
2021/04/04 08:36:36;;;;;;;7.07;1.58;;;9.70;72.50;;;;;;5095371;28;20088;-67
2021/04/04 08:39:04;;;;;;;7.32;1.48;;;9.70;72.70;;;;;;5095854;28;20035;-67
2021/04/04 08:41:34;;;;;;;11.60;2.60;;;9.80;72.80;;;;;;5094629;28;20035;-67
2021/04/04 08:44:05;;;;;;;12.85;1.45;;;9.80;72.40;;;;;;5084996;28;20082;-67
2021/04/04 08:46:45;;;;;;;4.20;1.60;;;9.80;72.50;;;;;;5090219;28;20102;-67
2021/04/04 08:49:12;;;;;;;6.72;1.13;;;9.80;72.60;;;;;;5072994;28;20029;-67
2021/04/04 08:51:41;;;;;;;17.23;3.08;;;9.80;72.70;;;;;;5075531;28;20059;-72
2021/04/04 08:54:18;;;;;;;4.57;1.45;;;9.80;72.50;;;;;;5074921;28;20112;-66
2021/04/04 08:56:46;;;;;;;8.25;1.73;;;9.80;72.60;;;;;;5074545;28;20430;-67
2021/04/04 08:59:16;;;;;;;6.97;2.15;;;9.80;73.00;;;;;;5075214;28;20396;-67
2021/04/04 09:01:48;;;;;;;18.08;1.90;;;9.80;73.00;;;;;;5075257;28;20468;-67
2021/04/04 09:04:14;;;;;;;10.73;1.92;;;9.80;73.20;;;;;;5061954;28;20541;-67
2021/04/04 09:06:42;;;;;;;6.85;1.58;;;9.90;73.10;;;;;;5074284;28;20040;-67
2021/04/04 09:09:22;;;;;;;12.02;2.80;;;9.80;73.10;;;;;;5075222;28;20025;-67
2021/04/04 09:11:53;;;;;;;4.60;1.92;;;9.80;73.00;;;;;;5074305;28;20103;-67
2021/04/04 09:14:22;;;;;;;20.25;2.63;;;9.80;73.10;;;;;;5074737;28;20028;-67
2021/04/04 09:16:58;;;;;;;11.13;2.00;;;9.90;72.80;;;;;;5074783;28;20670;-67
2021/04/04 09:19:29;;;;;;;2.20;1.08;;;9.90;72.80;;;;;;5074670;28;20041;-81
2021/04/04 09:21:58;;;;;;;4.28;0.63;;;9.90;73.10;;;;;;5070587;28;20048;-66
2021/04/04 09:24:26;;;;;;;5.50;1.45;;;9.90;73.10;;;;;;5065541;28;20058;-66
2021/04/04 09:26:54;;;;;;;11.07;2.15;;;9.90;73.10;;;;;;5074696;28;20079;-68
2021/04/04 09:29:21;;;;;;;11.27;1.48;;;10.00;72.90;;;;;;5074874;28;20071;-68
2021/04/04 09:31:51;;;;;;;12.90;2.15;;;9.90;73.00;;;;;;5056001;28;20039;-66
2021/04/04 09:34:19;;;;;;;5.22;0.90;;;10.00;73.20;;;;;;5074774;28;20037;-66
2021/04/04 09:36:48;;;;;;;1.98;1.08;;;10.00;73.40;;;;;;5060728;28;20021;-68
2021/04/04 09:39:20;;;;;;;5.78;1.60;;;9.90;73.40;;;;;;5073851;28;20040;-74
2021/04/04 09:41:47;;;;;;;7.33;1.53;;;10.00;73.20;;;;;;5074840;28;20031;-66
2021/04/04 09:44:13;;;;;;;2.50;0.95;;;9.90;73.20;;;;;;5074618;28;20270;-67
2021/04/04 09:46:56;;;;;;;8.25;2.05;;;10.00;73.20;;;;;;5072604;28;20043;-66
2021/04/04 09:49:41;;;;;;;10.88;2.33;;;9.90;73.20;;;;;;5072623;28;20021;-66
2021/04/04 09:52:16;;;;;;;14.43;1.33;;;10.00;73.10;;;;;;5074561;28;20040;-67
2021/04/04 09:54:55;;;;;;;6.18;1.38;;;10.00;72.70;;;;;;5074781;28;20033;-80
2021/04/04 09:57:21;;;;;;;1.30;0.65;;;10.00;72.40;;;;;;5062382;28;20036;-67
2021/04/04 09:59:47;;;;;;;9.10;2.03;;;10.10;73.10;;;;;;5066222;28;20021;-67
2021/04/04 10:02:12;;;;;;;6.65;1.60;;;10.10;73.00;;;;;;5074474;28;20108;-68
2021/04/04 10:04:44;;;;;;;6.72;1.63;;;10.20;72.70;;;;;;5074401;28;20040;-67
2021/04/04 10:07:10;;;;;;;10.05;2.22;;;10.20;73.00;;;;;;5073782;28;20376;-67
2021/04/04 10:09:39;;;;;;;5.80;1.30;;;10.20;73.00;;;;;;5074495;28;20032;-67
2021/04/04 10:12:05;;;;;;;10.93;2.30;;;10.20;73.30;;;;;;5074291;28;20384;-66
2021/04/04 10:14:31;;;;;;;10.35;2.20;;;10.30;72.70;;;;;;5072805;28;20029;-67
2021/04/04 10:17:13;;;;;;;8.40;2.00;;;10.30;72.70;;;;;;5073882;28;20506;-68
2021/04/04 10:19:56;;;;;;;17.83;2.85;;;10.30;72.80;;;;;;5073922;28;20024;-68
2021/04/04 10:22:22;;;;;;;7.75;1.35;;;10.30;72.00;;;;;;5072247;28;20028;-67
2021/04/04 10:24:48;;;;;;;17.38;2.70;;;10.40;73.10;;;;;;5073439;28;20037;-67
2021/04/04 10:27:28;;;;;;;4.00;1.27;;;10.40;72.50;;;;;;5047185;28;20045;-67
2021/04/04 10:30:12;;;;;;;15.32;2.78;;;10.40;73.10;;;;;;5056207;28;20040;-67
2021/04/04 10:32:39;;;;;;;;;;;10.50;72.90;;;;;;5060465;28;20037;-67
2021/04/04 10:35:07;;;;;;;13.00;1.90;;;10.40;73.20;;;;;;5061355;28;19951;-68
2021/04/04 10:37:33;;;;;;;3.35;1.05;;;10.40;73.00;;;;;;5055142;28;20036;-67
2021/04/04 10:40:02;;;;;;;7.13;2.38;;;10.40;73.60;;;;;;5054432;28;20025;-68
2021/04/04 10:42:29;;;;;;;3.28;1.23;;;10.40;73.20;;;;;;5053927;28;20079;-69
2021/04/04 10:45:18;;;;;;;3.78;1.27;;;10.50;72.70;;;;;;5053026;28;20539;-68
2021/04/04 10:47:44;;;;;;;5.63;1.88;;;10.50;73.20;;;;;;5052497;28;20052;-67
2021/04/04 10:50:12;;;;;;;2.58;0.70;;;10.40;72.90;;;;;;5054466;28;20029;-70
2021/04/04 10:52:41;;;;;;;4.90;1.13;;;10.40;73.20;;;;;;5038856;28;20129;-68
2021/04/04 10:55:09;;;;;;;9.95;1.63;;;10.40;73.50;;;;;;5054659;28;20029;-67
2021/04/04 10:57:37;;;;;;;13.30;2.28;;;10.40;73.40;;;;;;5033718;28;20120;-68
2021/04/04 11:00:08;;;;;;;14.05;2.53;;;10.40;73.60;;;;;;5054902;28;20075;-68
2021/04/04 11:02:37;;;;;;;11.13;1.90;;;10.40;73.20;;;;;;5053418;28;20036;-68
2021/04/04 11:05:03;;;;;;;12.18;1.90;;;10.40;73.20;;;;;;5056892;28;20021;-68
2021/04/04 11:07:30;;;;;;;2.35;0.75;;;10.50;73.30;;;;;;5053556;28;20069;-67
2021/04/04 11:09:55;;;;;;;7.38;1.05;;;10.40;73.70;;;;;;5053065;28;20051;-68
2021/04/04 11:12:24;;;;;;;0.50;0.40;;;10.40;73.60;;;;;;5055244;28;20032;-69
2021/04/04 11:14:53;;;;;;;10.45;2.03;;;10.50;73.70;;;;;;5056076;28;20032;-69
2021/04/04 11:17:21;;;;;;;3.25;1.52;;;10.50;73.50;;;;;;5058596;28;20032;-68
2021/04/04 11:19:51;;;;;;;13.75;1.90;;;10.50;73.50;;;;;;5055022;28;20025;-68
2021/04/04 11:22:19;;;;;;;8.23;1.55;;;10.50;73.50;;;;;;5057009;28;20032;-71
2021/04/04 11:25:04;;;;;;;7.95;2.03;;;10.50;73.20;;;;;;5068688;28;20081;-72
2021/04/04 11:27:45;;;;;;;3.45;1.55;;;10.50;73.20;;;;;;5061980;28;20040;-67
2021/04/04 11:30:16;;;;;;;6.35;1.80;;;10.50;73.50;;;;;;5072645;28;20032;-69
2021/04/04 11:32:47;;;;;;;2.97;1.27;;;10.60;73.60;;;;;;5071114;28;20115;-68
2021/04/04 11:35:14;;;;;;;8.02;1.45;;;10.60;73.80;;;;;;5071496;28;20093;-68
2021/04/04 11:37:43;;;;;;;6.55;1.65;;;10.60;73.60;;;;;;5071260;28;20514;-68
2021/04/04 11:40:21;;;;;;;9.45;2.03;;;10.60;74.00;;;;;;5071481;28;20097;-68
2021/04/04 11:42:52;;;;;;;8.27;2.28;;;10.60;73.70;;;;;;5071980;28;20032;-68
2021/04/04 11:45:38;;;;;;;13.50;1.80;;;10.60;73.80;;;;;;5070897;28;20040;-68
2021/04/04 11:48:30;;;;;;;15.20;1.88;;;10.60;74.10;;;;;;5072528;28;20044;-68
2021/04/04 11:51:16;;;;;;;1.15;0.90;;;10.60;73.80;;;;;;5072437;28;20032;-68
2021/04/04 11:53:47;;;;;;;4.85;1.30;;;10.70;74.10;;;;;;5071433;28;20028;-68
2021/04/04 11:56:41;;;;;;;5.50;1.63;;;10.60;74.10;;;;;;5069573;28;20052;-68
2021/04/04 11:59:07;;;;;;;5.80;2.13;;;10.60;74.00;;;;;;5059409;28;20146;-68
2021/04/04 12:01:33;;;;;;;14.25;1.73;;;10.60;74.00;;;;;;5053554;28;20495;-67
2021/04/04 12:04:29;;;;;;;7.97;1.73;;;10.60;73.70;;;;;;5052122;28;20025;-69
2021/04/04 12:07:09;;;;;;;6.28;1.65;;;10.60;74.20;;;;;;5053448;28;20127;-68
2021/04/04 12:09:37;;;;;;;11.15;2.03;;;10.60;74.30;;;;;;5051619;28;20032;-68
2021/04/04 12:12:04;;;;;;;8.85;2.33;;;10.60;74.60;;;;;;5060401;28;20478;-68
2021/04/04 12:14:30;;;;;;;9.65;2.47;;;10.60;74.50;;;;;;5071737;28;20051;-68
2021/04/04 12:16:56;;;;;;;6.38;2.20;;;10.60;74.60;;;;;;5072331;28;20020;-68
2021/04/04 12:19:30;;;;;;;10.85;2.75;;;10.50;74.50;;;;;;5072252;28;20067;-68
2021/04/04 12:21:57;;;;;;;9.25;1.98;;;10.40;74.60;;;;;;5071459;28;20029;-68
2021/04/04 12:24:40;;;;;;;3.30;1.40;;;10.40;74.80;;;;;;5072148;28;20044;-68
2021/04/04 12:27:07;;;;;;;4.45;1.67;;;10.40;74.90;;;;;;5071401;28;20060;-68
2021/04/04 12:29:44;;;;;;;3.97;2.03;;;10.50;75.00;;;;;;5071615;28;20472;-68
2021/04/04 12:32:24;;;;;;;10.80;2.10;;;10.40;75.00;;;;;;5071850;28;20028;-67
2021/04/04 12:34:56;;;;;;;14.63;2.50;;;10.50;74.90;;;;;;5071707;28;20404;-67
2021/04/04 12:37:23;;;;;;;9.77;2.95;;;10.40;74.50;;;;;;5071916;28;20029;-67
2021/04/04 12:39:50;;;;;;;7.50;2.05;;;10.40;74.60;;;;;;5057171;28;20465;-68
2021/04/04 12:42:19;;;;;;;11.80;2.67;;;10.40;74.50;;;;;;5050404;28;20117;-68
2021/04/04 12:44:47;;;;;;;8.02;2.58;;;10.40;74.70;;;;;;5053236;28;20021;-68
2021/04/04 12:47:14;;;;;;;10.73;2.80;;;10.40;74.40;;;;;;5053795;28;20056;-68
2021/04/04 12:49:42;;;;;;;2.58;1.38;;;10.40;74.30;;;;;;5050338;28;20487;-68
2021/04/04 12:52:09;;;;;;;4.10;1.45;;;10.40;74.40;;;;;;5051624;28;20048;-68
2021/04/04 12:54:36;;;;;;;4.47;2.00;;;10.40;74.70;;;;;;5061744;28;20028;-69
2021/04/04 12:57:02;;;;;;;5.45;1.30;;;10.50;74.60;;;;;;5052197;28;20025;-67
2021/04/04 12:59:28;;;;;;;15.25;2.72;;;10.50;74.50;;;;;;5053053;28;20123;-67
2021/04/04 13:01:54;;;;;;;6.10;2.20;;;10.50;74.50;;;;;;5051262;28;20100;-67
2021/04/04 13:04:22;;;;;;;11.88;1.95;;;10.60;74.50;;;;;;5049555;28;20044;-67
2021/04/04 13:06:49;;;;;;;7.30;1.52;;;10.50;74.60;;;;;;5050133;28;20044;-67
2021/04/04 13:09:15;;;;;;;3.08;1.85;;;10.60;75.20;;;;;;5048798;28;20392;-67
2021/04/04 13:11:43;;;;;;;8.60;2.40;;;10.60;74.40;;;;;;5052086;28;20092;-67